Time;durP1;ratioP1;P1;durP2;ratioP2;P2;SDS_P1;SDS_P2;PMS_P1;PMS_P2;Temp;Humidity;BMP_temperature;BMP_pressure;BME280_temperature;BME280_humidity;BME280_pressure;Samples;Min_cycle;Max_cycle;Signal;HPM_P1;HPM_P2
2022/05/19 00:00:34;;;;;;;4.10;3.70;;;;;;;;;;7368930;19;20132;-78
2022/05/19 00:02:59;;;;;;;5.97;3.80;;;;;;;;;;7373967;19;20156;-82
2022/05/19 00:05:26;;;;;;;5.90;4.20;;;;;;;;;;7380650;19;20684;-77
2022/05/19 00:07:52;;;;;;;4.30;3.90;;;;;;;;;;7378402;19;20184;-80
2022/05/19 00:10:18;;;;;;;4.27;3.87;;;;;;;;;;7370741;19;20136;-78
2022/05/19 00:12:44;;;;;;;6.37;3.93;;;;;;;;;;7378641;19;20141;-78
2022/05/19 00:15:11;;;;;;;6.07;3.77;;;;;;;;;;7378635;19;20149;-78
2022/05/19 00:17:37;;;;;;;4.87;3.70;;;;;;;;;;7378158;19;20133;-77
2022/05/19 00:20:04;;;;;;;5.73;4.00;;;;;;;;;;7373946;19;20125;-77
2022/05/19 00:22:30;;;;;;;5.77;4.07;;;;;;;;;;7375327;19;20167;-78
2022/05/19 00:24:56;;;;;;;4.30;3.90;;;;;;;;;;7374397;19;20160;-78
2022/05/19 00:27:22;;;;;;;5.47;4.00;;;;;;;;;;7377210;19;20493;-79
2022/05/19 00:29:47;;;;;;;4.87;3.90;;;;;;;;;;7377797;19;20121;-79
2022/05/19 00:32:13;;;;;;;6.57;3.77;;;;;;;;;;7380314;19;20481;-78
2022/05/19 00:34:39;;;;;;;4.07;3.67;;;;;;;;;;7377303;19;20149;-80
2022/05/19 00:37:05;;;;;;;4.83;4.00;;;;;;;;;;7372410;19;20148;-78
2022/05/19 00:39:34;;;;;;;4.50;3.87;;;;;;;;;;7370863;19;20465;-79
2022/05/19 00:44:44;;;;;;;4.73;4.20;;;;;;;;;;7374982;19;20151;-78
2022/05/19 00:47:21;;;;;;;6.80;4.30;;;;;;;;;;7367873;19;20133;-78
2022/05/19 00:49:48;;;;;;;4.03;3.70;;;;;;;;;;7369804;19;20148;-79
2022/05/19 00:52:28;;;;;;;4.43;3.97;;;;;;;;;;7375190;19;20204;-79
2022/05/19 00:54:59;;;;;;;5.17;4.00;;;;;;;;;;7379672;19;20156;-79
2022/05/19 00:57:27;;;;;;;5.77;4.10;;;;;;;;;;7369162;19;20587;-78
2022/05/19 00:59:54;;;;;;;6.67;4.10;;;;;;;;;;7369478;19;20137;-80
2022/05/19 01:02:23;;;;;;;5.77;3.93;;;;;;;;;;7366683;19;20134;-78
2022/05/19 01:04:52;;;;;;;4.50;4.00;;;;;;;;;;7371464;19;20176;-80
2022/05/19 01:07:20;;;;;;;4.50;4.10;;;;;;;;;;7373338;19;20917;-79
2022/05/19 01:09:46;;;;;;;5.47;4.20;;;;;;;;;;7369455;19;20890;-78
2022/05/19 01:12:12;;;;;;;4.63;4.03;;;;;;;;;;7369860;19;20631;-82
2022/05/19 01:14:39;;;;;;;7.70;4.73;;;;;;;;;;7375794;19;20173;-82
2022/05/19 01:17:06;;;;;;;6.43;4.10;;;;;;;;;;7376038;19;20144;-79
2022/05/19 01:19:45;;;;;;;6.70;4.20;;;;;;;;;;7375995;19;20124;-79
2022/05/19 01:22:22;;;;;;;4.20;3.80;;;;;;;;;;7376056;19;20166;-78
2022/05/19 01:25:01;;;;;;;7.90;4.30;;;;;;;;;;7376327;19;20190;-80
2022/05/19 01:27:28;;;;;;;8.03;4.40;;;;;;;;;;7378412;19;20140;-79
2022/05/19 01:29:54;;;;;;;5.70;4.43;;;;;;;;;;7369769;19;20160;-80
2022/05/19 01:32:25;;;;;;;4.97;4.10;;;;;;;;;;7366628;19;20173;-78
2022/05/19 01:34:52;;;;;;;4.87;4.27;;;;;;;;;;7368747;19;20180;-80
2022/05/19 01:37:18;;;;;;;5.43;4.00;;;;;;;;;;7370820;19;20140;-79
2022/05/19 01:39:46;;;;;;;5.00;4.50;;;;;;;;;;7371178;19;20178;-78
2022/05/19 01:42:15;;;;;;;4.83;4.33;;;;;;;;;;7373379;19;20125;-79
2022/05/19 01:44:49;;;;;;;6.17;4.23;;;;;;;;;;7375310;19;20277;-80
2022/05/19 01:47:18;;;;;;;4.23;3.87;;;;;;;;;;7377047;19;20153;-79
2022/05/19 01:49:54;;;;;;;6.20;4.30;;;;;;;;;;7374670;19;20136;-79
2022/05/19 01:52:23;;;;;;;5.30;4.27;;;;;;;;;;7371287;19;20152;-79
2022/05/19 01:54:58;;;;;;;17.97;4.67;;;;;;;;;;7375815;19;20187;-79
2022/05/19 01:57:42;;;;;;;6.13;4.67;;;;;;;;;;7380773;19;20606;-80
2022/05/19 02:00:19;;;;;;;6.00;4.30;;;;;;;;;;7381460;19;20177;-81
2022/05/19 02:02:54;;;;;;;4.70;4.20;;;;;;;;;;7385099;19;20197;-78
2022/05/19 02:05:26;;;;;;;6.20;4.07;;;;;;;;;;7370393;19;20148;-80
2022/05/19 02:07:53;;;;;;;5.77;4.73;;;;;;;;;;7377001;19;20137;-78
2022/05/19 02:10:23;;;;;;;4.80;4.27;;;;;;;;;;7371434;19;20204;-83
2022/05/19 02:12:50;;;;;;;5.63;4.47;;;;;;;;;;7371368;19;20602;-79
2022/05/19 02:15:18;;;;;;;4.57;4.03;;;;;;;;;;7375298;19;20175;-78
2022/05/19 02:17:45;;;;;;;5.13;4.30;;;;;;;;;;7374895;19;20184;-78
2022/05/19 02:20:13;;;;;;;8.20;4.00;;;;;;;;;;7374571;19;20121;-80
2022/05/19 02:22:40;;;;;;;5.70;4.07;;;;;;;;;;7377444;19;20147;-78
2022/05/19 02:25:13;;;;;;;8.07;4.50;;;;;;;;;;7375208;19;20149;-80
2022/05/19 02:27:48;;;;;;;5.10;4.40;;;;;;;;;;7380387;19;20216;-80
2022/05/19 02:30:19;;;;;;;5.63;4.40;;;;;;;;;;7376159;19;20121;-77
2022/05/19 02:32:46;;;;;;;4.73;4.33;;;;;;;;;;7385454;19;20152;-77
2022/05/19 02:35:12;;;;;;;4.07;3.60;;;;;;;;;;7401741;19;20164;-83
2022/05/19 02:37:38;;;;;;;4.87;4.10;;;;;;;;;;7412869;19;20118;-84
2022/05/19 02:40:05;;;;;;;5.57;4.20;;;;;;;;;;7414038;19;20140;-85
2022/05/19 02:42:31;;;;;;;4.37;4.00;;;;;;;;;;7410595;19;20113;-84
2022/05/19 02:44:57;;;;;;;4.63;4.10;;;;;;;;;;7412422;19;20176;-81
2022/05/19 02:47:23;;;;;;;4.50;4.10;;;;;;;;;;7387191;19;20651;-79
2022/05/19 02:49:49;;;;;;;5.40;3.97;;;;;;;;;;7381740;19;20141;-80
2022/05/19 02:52:15;;;;;;;4.30;3.90;;;;;;;;;;7381703;19;20145;-79
2022/05/19 02:54:41;;;;;;;6.23;4.43;;;;;;;;;;7385008;19;20153;-80
2022/05/19 02:57:07;;;;;;;5.27;4.33;;;;;;;;;;7381511;19;20152;-79
2022/05/19 02:59:33;;;;;;;5.03;4.43;;;;;;;;;;7382879;19;20172;-78
2022/05/19 03:01:59;;;;;;;5.43;4.43;;;;;;;;;;7384965;19;20121;-78
2022/05/19 03:04:25;;;;;;;4.17;3.77;;;;;;;;;;7379039;19;20133;-78
2022/05/19 03:06:52;;;;;;;5.73;4.50;;;;;;;;;;7380301;19;20121;-78
2022/05/19 03:09:18;;;;;;;5.60;4.50;;;;;;;;;;7381561;19;20625;-81
2022/05/19 03:11:44;;;;;;;4.97;4.43;;;;;;;;;;7380637;19;20152;-82
2022/05/19 03:14:10;;;;;;;4.70;4.30;;;;;;;;;;7378156;19;20163;-80
2022/05/19 03:16:38;;;;;;;4.77;4.20;;;;;;;;;;7376703;19;20604;-78
2022/05/19 03:19:04;;;;;;;7.57;4.40;;;;;;;;;;7372161;19;20232;-79
2022/05/19 03:21:30;;;;;;;6.60;4.60;;;;;;;;;;7382290;19;20121;-78
2022/05/19 03:23:57;;;;;;;4.90;4.03;;;;;;;;;;7375529;19;20181;-79
2022/05/19 03:26:23;;;;;;;6.73;4.30;;;;;;;;;;7371758;19;20148;-80
2022/05/19 03:28:49;;;;;;;4.60;4.03;;;;;;;;;;7378496;19;20140;-79
2022/05/19 03:31:15;;;;;;;5.83;4.37;;;;;;;;;;7376369;19;20137;-80
2022/05/19 03:33:41;;;;;;;5.37;4.63;;;;;;;;;;7377890;19;20144;-81
2022/05/19 03:36:08;;;;;;;5.50;4.40;;;;;;;;;;7374253;19;20153;-83
2022/05/19 03:38:34;;;;;;;5.10;4.40;;;;;;;;;;7368018;19;20503;-79
2022/05/19 03:41:00;;;;;;;5.53;4.37;;;;;;;;;;7378025;19;20149;-80
2022/05/19 03:43:26;;;;;;;5.93;4.67;;;;;;;;;;7376785;19;20150;-79
2022/05/19 03:45:52;;;;;;;4.90;4.40;;;;;;;;;;7378046;19;20539;-78
2022/05/19 03:48:18;;;;;;;6.20;4.47;;;;;;;;;;7382174;19;20145;-80
2022/05/19 03:50:44;;;;;;;5.80;4.20;;;;;;;;;;7384420;19;20141;-78
2022/05/19 03:53:10;;;;;;;7.43;5.00;;;;;;;;;;7379669;19;20129;-80
2022/05/19 03:55:37;;;;;;;6.67;4.30;;;;;;;;;;7378655;19;20187;-78
2022/05/19 03:58:04;;;;;;;4.53;4.10;;;;;;;;;;7381342;19;20166;-78
2022/05/19 04:00:31;;;;;;;5.77;4.40;;;;;;;;;;7381452;19;20676;-79
2022/05/19 04:02:57;;;;;;;5.03;4.27;;;;;;;;;;7377516;19;20618;-79
2022/05/19 04:05:24;;;;;;;6.63;4.53;;;;;;;;;;7380837;19;20172;-83
2022/05/19 04:07:50;;;;;;;5.87;4.60;;;;;;;;;;7375002;19;20168;-81
2022/05/19 04:10:16;;;;;;;5.67;4.87;;;;;;;;;;7379421;19;20157;-81
2022/05/19 04:12:43;;;;;;;8.70;4.80;;;;;;;;;;7374218;19;20121;-83
2022/05/19 04:15:10;;;;;;;7.77;4.50;;;;;;;;;;7380174;19;20156;-79
2022/05/19 04:17:36;;;;;;;4.57;4.17;;;;;;;;;;7380064;19;20463;-79
2022/05/19 04:20:06;;;;;;;5.00;4.50;;;;;;;;;;7380885;19;20197;-79
2022/05/19 04:22:32;;;;;;;4.90;4.27;;;;;;;;;;7374553;19;20156;-80
2022/05/19 04:25:00;;;;;;;4.30;3.90;;;;;;;;;;7378675;19;20145;-82
2022/05/19 04:27:27;;;;;;;7.17;4.80;;;;;;;;;;7380626;19;20152;-80
2022/05/19 04:29:54;;;;;;;5.20;4.70;;;;;;;;;;7382682;19;20145;-79
2022/05/19 04:32:20;;;;;;;6.73;4.40;;;;;;;;;;7376455;19;20121;-79
2022/05/19 04:34:46;;;;;;;5.83;4.43;;;;;;;;;;7382963;19;20530;-79
2022/05/19 04:37:12;;;;;;;7.03;4.43;;;;;;;;;;7381335;19;20141;-79
2022/05/19 04:39:38;;;;;;;6.77;4.47;;;;;;;;;;7383416;19;20132;-79
2022/05/19 04:42:05;;;;;;;5.27;3.93;;;;;;;;;;7378089;19;20168;-80
2022/05/19 04:44:31;;;;;;;4.50;4.00;;;;;;;;;;7384764;19;20136;-80
2022/05/19 04:46:57;;;;;;;5.80;5.13;;;;;;;;;;7386030;19;20191;-81
2022/05/19 04:49:23;;;;;;;7.90;5.73;;;;;;;;;;7380290;19;20148;-78
2022/05/19 04:51:49;;;;;;;6.47;5.13;;;;;;;;;;7380940;19;20149;-79
2022/05/19 04:54:15;;;;;;;5.47;4.50;;;;;;;;;;7385941;19;20165;-78
2022/05/19 04:56:42;;;;;;;6.63;4.73;;;;;;;;;;7382016;19;20175;-79
2022/05/19 04:59:14;;;;;;;6.70;4.73;;;;;;;;;;7390519;19;20144;-78
2022/05/19 05:01:44;;;;;;;5.63;5.03;;;;;;;;;;7391545;19;20137;-78
2022/05/19 05:04:10;;;;;;;5.13;4.63;;;;;;;;;;7386051;19;20148;-82
2022/05/19 05:06:36;;;;;;;6.40;4.83;;;;;;;;;;7387111;19;20237;-80
2022/05/19 05:09:02;;;;;;;7.03;5.33;;;;;;;;;;7398990;19;20129;-80
2022/05/19 05:11:28;;;;;;;5.83;5.23;;;;;;;;;;7385997;19;20162;-80
2022/05/19 05:13:54;;;;;;;6.50;5.40;;;;;;;;;;7375622;19;20149;-81
2022/05/19 05:16:20;;;;;;;6.47;5.30;;;;;;;;;;7397983;19;20203;-83
2022/05/19 05:18:46;;;;;;;7.13;5.30;;;;;;;;;;7398003;19;20520;-82
2022/05/19 05:21:13;;;;;;;8.37;5.60;;;;;;;;;;7398877;19;20149;-81
2022/05/19 05:23:39;;;;;;;5.40;4.90;;;;;;;;;;7401091;19;20156;-79
2022/05/19 05:26:06;;;;;;;6.33;5.57;;;;;;;;;;7381714;19;20156;-79
2022/05/19 05:28:32;;;;;;;6.27;5.67;;;;;;;;;;7381101;19;20137;-80
2022/05/19 05:30:58;;;;;;;8.20;5.40;;;;;;;;;;7378274;19;20151;-83
2022/05/19 05:33:24;;;;;;;7.27;5.30;;;;;;;;;;7383742;19;20148;-79
2022/05/19 05:35:50;;;;;;;10.33;5.87;;;;;;;;;;7383132;19;20497;-79
2022/05/19 05:38:17;;;;;;;8.20;5.87;;;;;;;;;;7381259;19;20177;-78
2022/05/19 05:40:43;;;;;;;7.90;5.73;;;;;;;;;;7381141;19;20636;-80
2022/05/19 05:43:19;;;;;;;8.63;5.83;;;;;;;;;;7381823;19;20457;-78
2022/05/19 05:45:46;;;;;;;8.13;5.90;;;;;;;;;;7375756;19;20654;-78
2022/05/19 05:48:13;;;;;;;11.10;6.37;;;;;;;;;;7371966;19;20642;-79
2022/05/19 05:50:39;;;;;;;7.53;6.67;;;;;;;;;;7375348;19;20196;-79
2022/05/19 05:53:06;;;;;;;9.60;6.33;;;;;;;;;;7371565;19;20642;-80
2022/05/19 05:55:32;;;;;;;9.50;6.63;;;;;;;;;;7376913;19;20212;-80
2022/05/19 05:57:58;;;;;;;13.07;7.37;;;;;;;;;;7369202;19;20152;-80
2022/05/19 06:00:24;;;;;;;9.43;7.00;;;;;;;;;;7381281;19;20133;-79
2022/05/19 06:02:50;;;;;;;9.97;6.67;;;;;;;;;;7369636;19;20128;-79
2022/05/19 06:05:17;;;;;;;9.73;6.77;;;;;;;;;;7379458;19;20667;-79
2022/05/19 06:07:43;;;;;;;13.63;7.40;;;;;;;;;;7380614;19;20140;-79
2022/05/19 06:10:11;;;;;;;12.20;7.20;;;;;;;;;;7382887;19;20121;-79
2022/05/19 06:12:37;;;;;;;10.95;6.50;;;;;;;;;;7390176;19;20180;-82
2022/05/19 06:15:03;;;;;;;11.53;7.30;;;;;;;;;;7386826;19;20172;-83
2022/05/19 06:17:29;;;;;;;7.90;6.50;;;;;;;;;;7387409;19;20196;-82
2022/05/19 06:19:55;;;;;;;15.93;7.38;;;;;;;;;;7390991;19;20153;-79
2022/05/19 06:22:24;;;;;;;8.60;5.80;;;;;;;;;;7390520;19;20125;-82
2022/05/19 06:24:51;;;;;;;7.23;5.70;;;;;;;;;;7388703;19;20151;-81
2022/05/19 06:27:17;;;;;;;6.55;5.82;;;;;;;;;;7393101;19;20159;-84
2022/05/19 06:29:43;;;;;;;8.68;5.97;;;;;;;;;;7381046;19;20140;-81
2022/05/19 06:32:10;;;;;;;6.28;5.10;;;;;;;;;;7387928;19;20491;-82
2022/05/19 06:34:36;;;;;;;6.55;5.65;;;;;;;;;;7391326;19;20133;-79
2022/05/19 06:37:02;;;;;;;13.43;5.97;;;;;;;;;;7382984;19;20152;-79
2022/05/19 06:39:29;;;;;;;9.18;6.10;;;;;;;;;;7386523;19;20671;-78
2022/05/19 06:42:00;;;;;;;11.40;5.88;;;;;;;;;;7383288;19;20141;-81
2022/05/19 06:44:29;;;;;;;6.82;6.13;;;;;;;;;;7386749;19;20148;-79
2022/05/19 06:46:56;;;;;;;8.27;6.22;;;;;;;;;;7382581;19;20148;-79
2022/05/19 06:49:22;;;;;;;8.95;5.97;;;;;;;;;;7381614;19;22115;-79
2022/05/19 06:51:48;;;;;;;6.95;6.25;;;;;;;;;;7387351;19;20614;-79
2022/05/19 06:54:14;;;;;;;9.38;6.32;;;;;;;;;;7374111;19;20145;-78
2022/05/19 06:56:40;;;;;;;5.72;5.07;;;;;;;;;;7377366;19;20626;-79
2022/05/19 06:59:07;;;;;;;8.73;5.88;;;;;;;;;;7381597;19;20471;-79
2022/05/19 07:01:33;;;;;;;6.63;5.88;;;;;;;;;;7378283;19;20249;-79
2022/05/19 07:04:00;;;;;;;6.28;5.43;;;;;;;;;;7385472;19;20145;-80
2022/05/19 07:06:26;;;;;;;6.03;5.32;;;;;;;;;;7385025;19;20168;-79
2022/05/19 07:08:52;;;;;;;6.63;5.20;;;;;;;;;;7386257;19;20185;-80
2022/05/19 07:11:27;;;;;;;7.07;5.55;;;;;;;;;;7380904;19;20196;-79
2022/05/19 07:14:04;;;;;;;12.93;6.05;;;;;;;;;;7386224;19;20484;-79
2022/05/19 07:16:31;;;;;;;8.32;5.93;;;;;;;;;;7392707;19;20203;-82
2022/05/19 07:21:45;;;;;;;6.10;5.25;;;;;;;;;;7423832;19;20111;-82
2022/05/19 07:24:16;;;;;;;10.95;5.63;;;;;;;;;;7419062;19;20118;-82
2022/05/19 07:26:45;;;;;;;8.40;5.18;;;;;;;;;;7416239;19;20169;-81
2022/05/19 07:29:12;;;;;;;7.97;5.13;;;;;;;;;;7386431;19;20145;-81
2022/05/19 07:31:38;;;;;;;7.32;5.93;;;;;;;;;;7382019;19;20164;-80
2022/05/19 07:34:05;;;;;;;10.77;6.28;;;;;;;;;;7379477;19;20128;-79
2022/05/19 07:36:35;;;;;;;8.63;5.75;;;;;;;;;;7384172;19;20179;-79
2022/05/19 07:39:01;;;;;;;7.35;6.22;;;;;;;;;;7376354;19;20169;-80
2022/05/19 07:41:27;;;;;;;5.53;4.88;;;;;;;;;;7376936;19;20651;-79
2022/05/19 07:43:53;;;;;;;9.63;6.25;;;;;;;;;;7372490;19;20145;-80
2022/05/19 07:46:19;;;;;;;6.28;5.47;;;;;;;;;;7371159;19;20160;-80
2022/05/19 07:48:46;;;;;;;7.15;5.32;;;;;;;;;;7371917;19;20121;-79
2022/05/19 07:51:12;;;;;;;9.02;5.20;;;;;;;;;;7374153;19;20427;-81
2022/05/19 07:53:38;;;;;;;8.80;5.55;;;;;;;;;;7378271;19;20200;-79
2022/05/19 07:56:04;;;;;;;5.43;4.90;;;;;;;;;;7380055;19;20149;-80
2022/05/19 07:58:30;;;;;;;8.50;4.70;;;;;;;;;;7383351;19;20133;-79
2022/05/19 08:00:58;;;;;;;10.45;5.07;;;;;;;;;;7384244;19;20156;-79
2022/05/19 08:03:25;;;;;;;6.20;4.75;;;;;;;;;;7380453;19;20193;-79
2022/05/19 08:05:52;;;;;;;6.68;5.22;;;;;;;;;;7384004;19;20785;-79
2022/05/19 08:08:18;;;;;;;11.00;5.70;;;;;;;;;;7386757;19;20133;-79
2022/05/19 08:10:44;;;;;;;8.13;4.63;;;;;;;;;;7384971;19;20139;-79
2022/05/19 08:15:55;;;;;;;8.48;5.47;;;;;;;;;;7385811;19;20176;-80
2022/05/19 08:18:22;;;;;;;8.45;5.07;;;;;;;;;;7384764;19;20583;-81
2022/05/19 08:20:50;;;;;;;7.68;4.63;;;;;;;;;;7384843;19;20160;-79
2022/05/19 08:23:21;;;;;;;7.78;5.10;;;;;;;;;;7381185;19;20153;-79
2022/05/19 08:25:47;;;;;;;5.43;4.55;;;;;;;;;;7386222;19;20169;-80
2022/05/19 08:28:14;;;;;;;9.63;5.47;;;;;;;;;;7383033;19;20148;-79
2022/05/19 08:30:42;;;;;;;6.80;4.25;;;;;;;;;;7386573;19;20145;-78
2022/05/19 08:33:08;;;;;;;9.20;5.05;;;;;;;;;;7383502;19;20154;-79
2022/05/19 08:35:34;;;;;;;12.35;5.03;;;;;;;;;;7387144;19;20176;-79
2022/05/19 08:38:01;;;;;;;11.13;4.97;;;;;;;;;;7384234;19;20149;-79
2022/05/19 08:40:27;;;;;;;8.80;5.03;;;;;;;;;;7383894;19;20160;-78
2022/05/19 08:42:56;;;;;;;6.38;4.93;;;;;;;;;;7380146;19;20518;-79
2022/05/19 08:45:28;;;;;;;5.57;4.40;;;;;;;;;;7382150;19;20172;-79
2022/05/19 08:48:01;;;;;;;5.28;4.50;;;;;;;;;;7384139;19;20694;-78
2022/05/19 08:50:29;;;;;;;8.15;5.50;;;;;;;;;;7385481;19;20152;-79
2022/05/19 08:52:55;;;;;;;6.38;5.28;;;;;;;;;;7382915;19;20125;-78
2022/05/19 08:55:22;;;;;;;7.63;5.07;;;;;;;;;;7381295;19;20234;-78
2022/05/19 08:57:58;;;;;;;6.95;4.82;;;;;;;;;;7379858;19;20152;-78
2022/05/19 09:00:32;;;;;;;8.68;4.90;;;;;;;;;;7380252;19;20156;-78
2022/05/19 09:03:05;;;;;;;7.50;4.57;;;;;;;;;;7380687;19;20144;-79
2022/05/19 09:05:31;;;;;;;8.43;4.90;;;;;;;;;;7382563;19;20248;-78
2022/05/19 09:08:07;;;;;;;6.57;4.72;;;;;;;;;;7380161;19;20148;-79
2022/05/19 09:10:40;;;;;;;8.25;4.60;;;;;;;;;;7379846;19;20199;-79
2022/05/19 09:13:06;;;;;;;6.40;4.53;;;;;;;;;;7380365;19;20159;-79
2022/05/19 09:15:33;;;;;;;5.07;4.47;;;;;;;;;;7379637;19;20220;-79
2022/05/19 09:17:59;;;;;;;7.57;4.70;;;;;;;;;;7385539;19;20604;-78
2022/05/19 09:20:30;;;;;;;6.07;4.57;;;;;;;;;;7383608;19;20121;-79
2022/05/19 09:23:01;;;;;;;6.10;4.95;;;;;;;;;;7376751;19;20156;-79
2022/05/19 09:25:28;;;;;;;9.05;4.82;;;;;;;;;;7379588;19;20287;-79
2022/05/19 09:27:54;;;;;;;4.60;4.20;;;;;;;;;;7383883;19;20114;-79
2022/05/19 09:30:36;;;;;;;8.68;5.55;;;;;;;;;;7383015;19;20124;-79
2022/05/19 09:33:06;;;;;;;6.05;4.70;;;;;;;;;;7382165;19;20536;-79
2022/05/19 09:35:39;;;;;;;8.98;5.22;;;;;;;;;;7381930;19;20172;-79
2022/05/19 09:38:07;;;;;;;8.32;4.82;;;;;;;;;;7378741;19;20603;-79
2022/05/19 09:40:36;;;;;;;12.75;4.93;;;;;;;;;;7375568;19;20200;-79
2022/05/19 09:43:15;;;;;;;11.48;5.55;;;;;;;;;;7379843;19;20151;-78
2022/05/19 09:45:49;;;;;;;6.55;5.40;;;;;;;;;;7373707;19;20180;-79
2022/05/19 09:48:16;;;;;;;5.63;4.65;;;;;;;;;;7386338;19;20160;-77
2022/05/19 09:50:47;;;;;;;14.13;9.18;;;;;;;;;;7390990;19;20599;-79
2022/05/19 09:53:36;;;;;;;5.00;4.50;;;;;;;;;;7390259;19;20153;-79
2022/05/19 09:56:03;;;;;;;9.02;5.07;;;;;;;;;;7381757;19;20194;-78
2022/05/19 09:58:35;;;;;;;12.65;5.25;;;;;;;;;;7383401;19;20145;-79
2022/05/19 10:01:15;;;;;;;9.00;5.45;;;;;;;;;;7379614;19;20137;-79
2022/05/19 18:19:15;;;;;;;4.80;3.60;;;;;;;;;;7380490;19;20192;-79
2022/05/19 18:21:41;;;;;;;6.22;3.00;;;;;;;;;;7385152;19;20154;-79
2022/05/19 18:24:08;;;;;;;4.40;3.50;;;;;;;;;;7389110;19;20156;-79
2022/05/19 18:26:37;;;;;;;5.60;3.30;;;;;;;;;;7389890;19;20173;-78
2022/05/19 18:29:06;;;;;;;4.00;3.00;;;;;;;;;;7386485;19;20164;-79
2022/05/19 18:31:32;;;;;;;4.28;3.10;;;;;;;;;;7388786;19;20216;-80
2022/05/19 18:33:58;;;;;;;7.10;3.30;;;;;;;;;;7382412;19;20137;-78
2022/05/19 18:36:24;;;;;;;3.30;2.90;;;;;;;;;;7383565;19;20507;-78
2022/05/19 18:38:50;;;;;;;4.63;3.17;;;;;;;;;;7382496;19;20651;-78
2022/05/19 18:46:46;;;;;;;3.00;2.58;;;;;;;;;;7385267;19;20487;-79
2022/05/19 18:49:13;;;;;;;3.25;2.90;;;;;;;;;;7386146;19;20184;-79
2022/05/19 18:51:41;;;;;;;4.75;3.00;;;;;;;;;;7378466;19;21378;-79
2022/05/19 18:54:07;;;;;;;4.05;2.70;;;;;;;;;;7379845;19;20829;-80
2022/05/19 18:56:33;;;;;;;3.45;2.60;;;;;;;;;;7389795;19;20152;-80
2022/05/19 18:58:59;;;;;;;4.55;3.05;;;;;;;;;;7388643;19;20133;-80
2022/05/19 19:01:26;;;;;;;3.63;2.63;;;;;;;;;;7386708;19;20121;-79
2022/05/19 19:03:52;;;;;;;4.80;2.85;;;;;;;;;;7379794;19;20152;-79
2022/05/19 19:06:20;;;;;;;4.32;2.67;;;;;;;;;;7380719;19;20144;-80
2022/05/19 19:08:47;;;;;;;4.40;2.67;;;;;;;;;;7382742;19;20125;-79
2022/05/19 19:11:13;;;;;;;3.45;3.15;;;;;;;;;;7375863;19;20169;-78
2022/05/19 19:13:40;;;;;;;3.83;2.80;;;;;;;;;;7379742;19;20597;-78
2022/05/19 19:16:07;;;;;;;4.07;3.08;;;;;;;;;;7375010;19;20901;-78
2022/05/19 19:18:35;;;;;;;3.65;2.88;;;;;;;;;;7373836;19;20171;-79
2022/05/19 19:21:01;;;;;;;3.17;2.88;;;;;;;;;;7371730;19;20573;-79
2022/05/19 19:23:27;;;;;;;4.05;2.70;;;;;;;;;;7374720;19;20144;-79
2022/05/19 19:25:53;;;;;;;3.22;2.85;;;;;;;;;;7389417;19;20141;-79
2022/05/19 19:28:19;;;;;;;2.33;2.13;;;;;;;;;;7375778;19;20186;-79
2022/05/19 19:30:45;;;;;;;3.83;2.53;;;;;;;;;;7380647;19;20247;-79
2022/05/19 19:33:11;;;;;;;3.47;2.80;;;;;;;;;;7382967;19;20417;-78
2022/05/19 19:35:37;;;;;;;3.35;2.65;;;;;;;;;;7381079;19;20236;-79
2022/05/19 19:38:03;;;;;;;6.00;3.67;;;;;;;;;;7389301;19;20156;-79
2022/05/19 19:40:29;;;;;;;4.07;3.58;;;;;;;;;;7389936;19;20152;-80
2022/05/19 19:42:55;;;;;;;4.32;3.60;;;;;;;;;;7375024;19;20159;-79
2022/05/19 19:45:22;;;;;;;4.80;3.40;;;;;;;;;;7373710;19;20161;-79
2022/05/19 19:47:49;;;;;;;3.80;2.65;;;;;;;;;;7387833;19;20581;-80
2022/05/19 19:53:00;;;;;;;5.22;3.05;;;;;;;;;;7390210;19;20865;-80
2022/05/19 19:55:26;;;;;;;4.07;2.80;;;;;;;;;;7386859;19;20177;-79
2022/05/19 19:57:53;;;;;;;5.40;3.25;;;;;;;;;;7384126;19;20149;-79
2022/05/19 20:00:22;;;;;;;3.38;2.50;;;;;;;;;;7391173;19;20219;-79
2022/05/19 20:02:48;;;;;;;3.95;2.80;;;;;;;;;;7387075;19;20483;-79
2022/05/19 20:05:14;;;;;;;4.35;3.00;;;;;;;;;;7384889;19;20149;-79
2022/05/19 20:07:41;;;;;;;2.88;2.60;;;;;;;;;;7384247;19;20140;-79
2022/05/19 20:10:08;;;;;;;3.03;2.40;;;;;;;;;;7379011;19;20469;-80
2022/05/19 20:12:34;;;;;;;4.78;2.40;;;;;;;;;;7381571;19;20140;-79
2022/05/19 20:15:00;;;;;;;5.60;2.70;;;;;;;;;;7385955;19;20212;-81
2022/05/19 20:17:30;;;;;;;3.08;2.75;;;;;;;;;;7381504;19;20737;-79
2022/05/19 20:19:57;;;;;;;3.50;2.58;;;;;;;;;;7389511;19;20133;-79
2022/05/19 20:22:22;;;;;;;4.85;3.00;;;;;;;;;;7382068;19;20160;-79
2022/05/19 20:24:48;;;;;;;3.30;2.60;;;;;;;;;;7383514;19;20168;-79
2022/05/19 20:27:15;;;;;;;2.80;2.47;;;;;;;;;;7385156;19;20657;-79
2022/05/19 20:29:41;;;;;;;4.00;2.95;;;;;;;;;;7382542;19;20151;-79
2022/05/19 20:32:08;;;;;;;3.40;3.05;;;;;;;;;;7388841;19;20149;-80
2022/05/19 20:34:34;;;;;;;4.78;2.90;;;;;;;;;;7386516;19;20153;-79
2022/05/19 20:37:00;;;;;;;3.05;2.70;;;;;;;;;;7388962;19;20769;-80
2022/05/19 20:39:26;;;;;;;3.28;2.65;;;;;;;;;;7387880;19;20240;-80
2022/05/19 20:41:52;;;;;;;4.70;3.22;;;;;;;;;;7371612;19;20161;-80
2022/05/19 20:44:19;;;;;;;3.58;2.85;;;;;;;;;;7374886;19;20481;-80
2022/05/19 20:46:45;;;;;;;4.40;2.42;;;;;;;;;;7360283;19;20133;-79
2022/05/19 20:49:11;;;;;;;4.57;2.90;;;;;;;;;;7382618;19;20176;-79
2022/05/19 20:51:37;;;;;;;4.40;2.80;;;;;;;;;;7377413;19;20122;-79
2022/05/19 20:54:04;;;;;;;4.18;2.70;;;;;;;;;;7377656;19;20172;-79
2022/05/19 20:56:30;;;;;;;3.88;2.90;;;;;;;;;;7380575;19;20149;-79
2022/05/19 20:58:56;;;;;;;4.38;2.80;;;;;;;;;;7383933;19;20117;-79
2022/05/19 21:01:23;;;;;;;2.83;2.42;;;;;;;;;;7377881;19;20152;-80
2022/05/19 21:03:49;;;;;;;4.18;2.80;;;;;;;;;;7378433;19;20136;-80
2022/05/19 21:06:15;;;;;;;4.20;2.70;;;;;;;;;;7383566;19;20180;-79
2022/05/19 21:08:42;;;;;;;4.07;2.83;;;;;;;;;;7372055;19;20140;-81
2022/05/19 21:11:09;;;;;;;2.60;2.38;;;;;;;;;;7379987;19;20687;-80
2022/05/19 21:13:36;;;;;;;2.72;2.50;;;;;;;;;;7384878;19;20160;-79
2022/05/19 21:16:03;;;;;;;4.38;2.80;;;;;;;;;;7385507;19;20260;-80
2022/05/19 21:18:30;;;;;;;3.22;2.60;;;;;;;;;;7388397;19;20160;-80
2022/05/19 21:20:56;;;;;;;4.03;2.78;;;;;;;;;;7383289;19;20146;-80
2022/05/19 21:26:06;;;;;;;2.97;2.60;;;;;;;;;;7370229;19;20147;-79
2022/05/19 21:28:33;;;;;;;4.07;2.60;;;;;;;;;;7387195;19;20149;-79
2022/05/19 21:30:59;;;;;;;2.97;2.67;;;;;;;;;;7382188;19;20160;-81
2022/05/19 21:33:25;;;;;;;3.42;2.95;;;;;;;;;;7370273;19;20145;-81
2022/05/19 21:35:51;;;;;;;2.80;2.47;;;;;;;;;;7365316;19;20736;-82
2022/05/19 21:38:18;;;;;;;3.38;2.75;;;;;;;;;;7368012;19;20581;-80
2022/05/19 21:40:45;;;;;;;2.92;2.63;;;;;;;;;;7381189;19;20192;-82
2022/05/19 21:43:12;;;;;;;3.67;3.13;;;;;;;;;;7367809;19;20159;-80
2022/05/19 21:45:38;;;;;;;5.03;3.10;;;;;;;;;;7379823;19;20192;-80
2022/05/19 21:48:04;;;;;;;4.18;2.80;;;;;;;;;;7381229;19;21039;-81
2022/05/19 21:50:30;;;;;;;3.83;2.63;;;;;;;;;;7371313;19;20156;-80
2022/05/19 21:55:42;;;;;;;3.70;2.53;;;;;;;;;;7359323;19;20160;-81
2022/05/19 21:58:08;;;;;;;3.53;2.83;;;;;;;;;;7363697;19;20633;-81
2022/05/19 22:00:38;;;;;;;4.30;2.67;;;;;;;;;;7370866;19;20185;-82
2022/05/19 22:03:12;;;;;;;3.17;2.83;;;;;;;;;;7377672;19;20634;-80
2022/05/19 22:05:39;;;;;;;7.60;2.92;;;;;;;;;;7373304;19;20173;-80
2022/05/19 22:08:06;;;;;;;2.83;2.60;;;;;;;;;;7376847;19;20642;-81
2022/05/19 22:10:32;;;;;;;3.10;2.70;;;;;;;;;;7386622;19;20121;-79
2022/05/19 22:12:59;;;;;;;3.33;2.78;;;;;;;;;;7379583;19;20144;-80
2022/05/19 22:15:26;;;;;;;6.05;3.30;;;;;;;;;;7380416;19;20148;-81
2022/05/19 22:17:52;;;;;;;3.30;3.00;;;;;;;;;;7381066;19;20148;-83
2022/05/19 22:20:18;;;;;;;6.07;3.78;;;;;;;;;;7382171;19;20145;-80
2022/05/19 22:22:45;;;;;;;4.65;3.70;;;;;;;;;;7379568;19;20173;-80
2022/05/19 22:25:11;;;;;;;3.90;3.50;;;;;;;;;;7376213;19;20179;-83
2022/05/19 22:27:37;;;;;;;4.20;3.45;;;;;;;;;;7375991;19;20541;-82
2022/05/19 22:30:04;;;;;;;5.50;3.67;;;;;;;;;;7373238;19;20145;-80
2022/05/19 22:32:30;;;;;;;4.00;3.60;;;;;;;;;;7371451;19;20178;-80
2022/05/19 22:34:56;;;;;;;4.57;3.47;;;;;;;;;;7372668;19;20173;-80
2022/05/19 22:37:22;;;;;;;4.88;3.35;;;;;;;;;;7381735;19;20157;-79
2022/05/19 22:39:48;;;;;;;4.78;3.67;;;;;;;;;;7373929;19;21200;-79
2022/05/19 22:42:15;;;;;;;4.88;3.00;;;;;;;;;;7371115;19;20127;-79
2022/05/19 22:44:41;;;;;;;3.15;2.85;;;;;;;;;;7380883;19;20512;-79
2022/05/19 22:48:08;;;;;;;3.03;2.83;;;;;;;;;;7370140;19;20136;-79
2022/05/19 22:50:03;;;;;;;3.03;2.75;;;;;;;;;;7382521;19;20157;-79
2022/05/19 22:52:29;;;;;;;3.42;2.70;;;;;;;;;;7381471;19;20152;-79
2022/05/19 22:54:56;;;;;;;2.88;2.60;;;;;;;;;;7377709;19;20195;-81
2022/05/19 22:57:22;;;;;;;3.70;2.80;;;;;;;;;;7386584;19;20129;-80
2022/05/19 22:59:48;;;;;;;4.85;2.80;;;;;;;;;;7381256;19;20125;-81
2022/05/19 23:02:15;;;;;;;3.33;2.80;;;;;;;;;;7377568;19;20136;-80
2022/05/19 23:04:41;;;;;;;3.35;2.58;;;;;;;;;;7383105;19;20190;-81
2022/05/19 23:07:07;;;;;;;4.45;2.78;;;;;;;;;;7376423;19;20113;-81
2022/05/19 23:09:33;;;;;;;4.10;2.75;;;;;;;;;;7381787;19;20164;-82
2022/05/19 23:12:00;;;;;;;3.88;3.00;;;;;;;;;;7380658;19;20240;-80
2022/05/19 23:14:27;;;;;;;3.92;3.30;;;;;;;;;;7379752;19;20140;-80
2022/05/19 23:16:53;;;;;;;3.47;2.80;;;;;;;;;;7381562;19;20162;-81
2022/05/19 23:19:19;;;;;;;3.17;2.97;;;;;;;;;;7405381;19;20141;-80
2022/05/19 23:21:46;;;;;;;3.08;2.78;;;;;;;;;;7402723;19;20137;-82